Time;durP1;ratioP1;P1;durP2;ratioP2;P2;SDS_P1;SDS_P2;PMS_P1;PMS_P2;Temp;Humidity;BMP_temperature;BMP_pressure;BME280_temperature;BME280_humidity;BME280_pressure;Samples;Min_cycle;Max_cycle;Signal;HPM_P1;HPM_P2
2023/08/26 00:01:28;;;;;;;9.93;8.45;;;;;;;;;;4956124;28;20224;-68
2023/08/26 00:03:54;;;;;;;10.50;8.65;;;;;;;;;;4953677;28;20302;-68
2023/08/26 00:06:20;;;;;;;13.48;8.98;;;;;;;;;;4953796;28;20672;-68
2023/08/26 00:08:48;;;;;;;11.63;8.50;;;;;;;;;;4953099;28;20200;-68
2023/08/26 00:11:14;;;;;;;12.00;8.88;;;;;;;;;;4953486;29;20219;-68
2023/08/26 00:13:40;;;;;;;13.80;9.25;;;;;;;;;;4953810;28;20683;-68
2023/08/26 00:16:07;;;;;;;14.13;9.80;;;;;;;;;;4953813;28;20302;-68
2023/08/26 00:18:33;;;;;;;14.27;9.63;;;;;;;;;;4953537;28;20203;-68
2023/08/26 00:21:00;;;;;;;11.60;8.57;;;;;;;;;;4953509;28;20224;-68
2023/08/26 00:23:26;;;;;;;11.68;5.90;;;;;;;;;;4953624;28;20210;-68
2023/08/26 00:25:54;;;;;;;7.93;5.82;;;;;;;;;;4953627;28;20208;-68
2023/08/26 00:28:20;;;;;;;9.05;6.13;;;;;;;;;;4953634;28;20227;-68
2023/08/26 00:30:54;;;;;;;12.00;5.88;;;;;;;;;;4953205;28;20239;-68
2023/08/26 00:33:21;;;;;;;6.80;5.50;;;;;;;;;;4953549;28;20298;-68
2023/08/26 00:35:47;;;;;;;7.78;6.50;;;;;;;;;;4953509;28;20204;-68
2023/08/26 00:38:14;;;;;;;8.32;6.40;;;;;;;;;;4953517;28;20201;-68
2023/08/26 00:40:40;;;;;;;8.40;6.82;;;;;;;;;;4952886;28;20235;-68
2023/08/26 00:43:09;;;;;;;8.13;5.70;;;;;;;;;;4953345;28;20212;-68
2023/08/26 00:45:35;;;;;;;8.18;6.38;;;;;;;;;;4953382;28;20224;-68
2023/08/26 00:48:02;;;;;;;7.57;6.18;;;;;;;;;;4953138;28;20208;-68
2023/08/26 00:50:29;;;;;;;8.40;6.30;;;;;;;;;;4952909;28;20193;-68
2023/08/26 00:52:55;;;;;;;12.48;6.60;;;;;;;;;;4953294;28;20204;-68
2023/08/26 00:55:22;;;;;;;9.82;6.43;;;;;;;;;;4953432;28;20203;-68
2023/08/26 00:57:48;;;;;;;10.27;5.90;;;;;;;;;;4953201;28;20197;-68
2023/08/26 01:00:16;;;;;;;8.23;6.45;;;;;;;;;;4953260;28;20271;-68
2023/08/26 01:02:43;;;;;;;9.75;6.18;;;;;;;;;;4953403;28;20219;-68
2023/08/26 01:05:09;;;;;;;10.10;6.10;;;;;;;;;;4953347;28;20204;-68
2023/08/26 01:07:35;;;;;;;6.20;5.50;;;;;;;;;;4953412;28;20200;-68
2023/08/26 01:10:02;;;;;;;6.28;5.78;;;;;;;;;;4953007;28;20719;-68
2023/08/26 01:12:31;;;;;;;11.23;5.70;;;;;;;;;;4952813;28;20216;-68
2023/08/26 01:15:01;;;;;;;7.30;6.63;;;;;;;;;;4953180;28;20227;-68
2023/08/26 01:17:29;;;;;;;9.00;6.18;;;;;;;;;;4953487;28;20207;-68
2023/08/26 01:19:57;;;;;;;9.32;6.32;;;;;;;;;;4955362;28;20595;-68
2023/08/26 01:22:24;;;;;;;9.93;6.13;;;;;;;;;;4956591;28;20220;-68
2023/08/26 01:24:52;;;;;;;7.40;5.97;;;;;;;;;;4956920;28;20200;-68
2023/08/26 01:27:18;;;;;;;7.03;5.63;;;;;;;;;;4956688;28;20204;-68
2023/08/26 01:29:44;;;;;;;8.27;6.05;;;;;;;;;;4956431;28;20206;-68
2023/08/26 01:32:17;;;;;;;8.85;5.88;;;;;;;;;;4956546;28;20236;-68
2023/08/26 01:34:47;;;;;;;6.70;5.70;;;;;;;;;;4956734;28;20227;-68
2023/08/26 01:37:14;;;;;;;5.50;5.10;;;;;;;;;;4956586;28;20252;-68
2023/08/26 01:39:41;;;;;;;6.90;5.43;;;;;;;;;;4956378;28;20704;-68
2023/08/26 01:42:11;;;;;;;6.40;5.63;;;;;;;;;;4955776;28;20224;-68
2023/08/26 01:44:38;;;;;;;6.53;5.50;;;;;;;;;;4956539;28;20683;-68
2023/08/26 01:47:05;;;;;;;6.90;5.85;;;;;;;;;;4956335;28;20196;-68
2023/08/26 01:49:31;;;;;;;6.28;5.68;;;;;;;;;;4956217;28;20564;-68
2023/08/26 01:51:57;;;;;;;6.93;5.25;;;;;;;;;;4955999;28;20236;-68
2023/08/26 01:54:23;;;;;;;8.73;5.60;;;;;;;;;;4956705;28;20204;-68
2023/08/26 01:56:50;;;;;;;8.38;5.50;;;;;;;;;;4956315;28;20197;-68
2023/08/26 01:59:17;;;;;;;6.10;5.60;;;;;;;;;;4956318;28;20230;-68
2023/08/26 02:01:43;;;;;;;5.93;5.13;;;;;;;;;;4956352;28;20224;-68
2023/08/26 02:04:10;;;;;;;5.75;5.25;;;;;;;;;;4956247;28;20205;-68
2023/08/26 02:06:38;;;;;;;5.85;5.10;;;;;;;;;;4956111;28;20203;-68
2023/08/26 02:09:04;;;;;;;7.05;5.47;;;;;;;;;;4960923;28;20197;-68
2023/08/26 02:11:30;;;;;;;9.55;5.30;;;;;;;;;;4960940;28;20726;-69
2023/08/26 02:13:57;;;;;;;6.90;5.60;;;;;;;;;;4956020;28;20201;-69
2023/08/26 02:16:24;;;;;;;5.38;4.97;;;;;;;;;;4956125;28;20212;-69
2023/08/26 02:18:52;;;;;;;5.60;4.93;;;;;;;;;;4955988;28;20208;-69
2023/08/26 02:21:18;;;;;;;9.32;5.90;;;;;;;;;;4955303;28;20670;-69
2023/08/26 02:23:45;;;;;;;8.48;5.20;;;;;;;;;;4955487;28;20208;-69
2023/08/26 02:26:11;;;;;;;5.38;4.70;;;;;;;;;;4955915;28;20200;-69
2023/08/26 02:28:37;;;;;;;4.85;4.53;;;;;;;;;;4955741;28;20591;-69
2023/08/26 02:31:03;;;;;;;5.15;4.68;;;;;;;;;;4954398;28;20224;-69
2023/08/26 02:33:31;;;;;;;5.20;4.78;;;;;;;;;;4955749;28;20231;-69
2023/08/26 02:35:58;;;;;;;5.55;5.03;;;;;;;;;;4955332;28;20205;-69
2023/08/26 02:38:24;;;;;;;6.13;4.90;;;;;;;;;;4955294;28;20203;-69
2023/08/26 02:40:54;;;;;;;5.50;4.97;;;;;;;;;;4954985;28;20233;-69
2023/08/26 02:43:20;;;;;;;8.50;5.30;;;;;;;;;;4955407;28;20204;-69
2023/08/26 02:45:47;;;;;;;7.05;4.90;;;;;;;;;;4955558;28;20241;-69
2023/08/26 02:48:13;;;;;;;7.90;5.18;;;;;;;;;;4955763;28;20586;-69
2023/08/26 02:50:40;;;;;;;9.18;5.80;;;;;;;;;;4954760;28;20219;-69
2023/08/26 02:53:07;;;;;;;8.70;6.03;;;;;;;;;;4955253;28;20200;-69
2023/08/26 02:55:33;;;;;;;7.35;5.75;;;;;;;;;;4955329;28;20207;-69
2023/08/26 02:57:59;;;;;;;8.05;5.20;;;;;;;;;;4955094;28;20677;-69
2023/08/26 03:00:26;;;;;;;5.88;4.90;;;;;;;;;;4954788;28;20220;-69
2023/08/26 03:02:52;;;;;;;6.13;5.22;;;;;;;;;;4954907;28;20296;-69
2023/08/26 03:05:18;;;;;;;9.88;5.47;;;;;;;;;;4954870;28;20699;-69
2023/08/26 03:07:46;;;;;;;8.82;4.82;;;;;;;;;;4955217;28;20203;-69
2023/08/26 03:10:12;;;;;;;4.78;4.22;;;;;;;;;;4955064;28;20199;-69
2023/08/26 03:12:38;;;;;;;5.00;4.60;;;;;;;;;;4954521;28;20224;-69
2023/08/26 03:15:05;;;;;;;4.60;4.28;;;;;;;;;;4955052;28;20204;-69
2023/08/26 03:17:32;;;;;;;5.05;3.92;;;;;;;;;;4954768;28;20204;-69
2023/08/26 03:19:58;;;;;;;6.47;4.00;;;;;;;;;;4954355;28;20224;-69
2023/08/26 03:22:24;;;;;;;6.10;4.20;;;;;;;;;;4954248;28;20220;-69
2023/08/26 03:24:52;;;;;;;6.97;4.47;;;;;;;;;;4954519;28;20207;-69
2023/08/26 03:27:18;;;;;;;5.05;4.35;;;;;;;;;;4954748;28;20211;-69
2023/08/26 03:29:44;;;;;;;5.07;4.13;;;;;;;;;;4954447;28;20227;-69
2023/08/26 03:32:11;;;;;;;5.45;4.40;;;;;;;;;;4953939;28;20220;-69
2023/08/26 03:34:37;;;;;;;5.00;4.60;;;;;;;;;;4954306;28;20207;-69
2023/08/26 03:37:03;;;;;;;6.53;4.75;;;;;;;;;;4954359;28;20239;-69
2023/08/26 03:39:30;;;;;;;5.15;4.53;;;;;;;;;;4954355;28;20232;-69
2023/08/26 03:41:57;;;;;;;5.13;4.35;;;;;;;;;;4953730;28;20727;-69
2023/08/26 03:44:24;;;;;;;4.65;4.22;;;;;;;;;;4954266;28;20630;-69
2023/08/26 03:46:50;;;;;;;6.13;4.25;;;;;;;;;;4953997;28;20204;-69
2023/08/26 03:49:16;;;;;;;5.57;4.63;;;;;;;;;;4953993;28;20586;-69
2023/08/26 03:51:42;;;;;;;5.43;4.07;;;;;;;;;;4953933;28;20227;-69
2023/08/26 03:54:09;;;;;;;4.13;3.83;;;;;;;;;;4954089;28;20208;-69
2023/08/26 03:56:35;;;;;;;4.57;4.20;;;;;;;;;;4954123;28;20201;-69
2023/08/26 03:59:03;;;;;;;4.68;4.32;;;;;;;;;;4953848;28;20212;-69
2023/08/26 04:01:31;;;;;;;4.97;4.57;;;;;;;;;;4953452;28;20228;-69
2023/08/26 04:03:57;;;;;;;7.18;5.13;;;;;;;;;;4953710;28;20216;-69
2023/08/26 04:06:23;;;;;;;5.68;4.75;;;;;;;;;;4954030;28;20527;-69
2023/08/26 04:08:50;;;;;;;7.10;4.55;;;;;;;;;;4953791;28;20228;-69
2023/08/26 04:11:17;;;;;;;4.88;4.38;;;;;;;;;;4953624;28;20220;-70
2023/08/26 04:13:45;;;;;;;6.13;4.63;;;;;;;;;;4953896;28;20200;-70
2023/08/26 04:16:15;;;;;;;5.95;4.88;;;;;;;;;;4954055;28;20795;-66
2023/08/26 04:18:41;;;;;;;7.15;4.63;;;;;;;;;;4954196;28;20196;-66
2023/08/26 04:21:10;;;;;;;5.05;4.65;;;;;;;;;;4953227;28;20283;-66
2023/08/26 04:23:36;;;;;;;6.65;4.55;;;;;;;;;;4953738;28;20211;-66
2023/08/26 04:26:03;;;;;;;5.13;4.50;;;;;;;;;;4953502;28;20216;-66
2023/08/26 04:28:29;;;;;;;7.75;5.30;;;;;;;;;;4953524;28;20686;-66
2023/08/26 04:30:57;;;;;;;5.60;4.68;;;;;;;;;;4953193;28;20220;-66
2023/08/26 04:33:24;;;;;;;8.57;4.50;;;;;;;;;;4953611;28;20204;-66
2023/08/26 04:35:51;;;;;;;11.70;4.78;;;;;;;;;;4953283;28;20584;-66
2023/08/26 04:38:17;;;;;;;6.15;4.82;;;;;;;;;;4953573;28;20200;-66
2023/08/26 04:40:43;;;;;;;7.82;5.47;;;;;;;;;;4952995;28;20220;-66
2023/08/26 04:43:10;;;;;;;6.65;6.05;;;;;;;;;;4953029;28;20205;-66
2023/08/26 04:45:36;;;;;;;9.63;4.68;;;;;;;;;;4953588;28;20204;-66
2023/08/26 04:48:03;;;;;;;4.82;4.22;;;;;;;;;;4953525;28;20303;-66
2023/08/26 04:50:31;;;;;;;8.18;6.15;;;;;;;;;;4953010;28;20193;-66
2023/08/26 04:52:57;;;;;;;5.40;4.90;;;;;;;;;;4953296;28;20233;-66
2023/08/26 04:55:24;;;;;;;6.65;5.05;;;;;;;;;;4956488;28;20207;-67
2023/08/26 04:57:50;;;;;;;5.38;5.07;;;;;;;;;;4957382;28;20724;-67
2023/08/26 05:00:17;;;;;;;7.60;5.40;;;;;;;;;;4941713;29;20212;-66
2023/08/26 05:02:43;;;;;;;11.45;4.72;;;;;;;;;;4957060;28;20255;-66
2023/08/26 05:05:09;;;;;;;5.53;4.88;;;;;;;;;;4957257;28;20209;-67
2023/08/26 05:07:37;;;;;;;4.47;4.20;;;;;;;;;;4957279;28;20204;-67
2023/08/26 05:10:04;;;;;;;4.53;4.22;;;;;;;;;;4956955;28;20200;-66
2023/08/26 05:12:30;;;;;;;5.00;4.50;;;;;;;;;;4956570;28;20250;-66
2023/08/26 05:14:57;;;;;;;5.13;4.45;;;;;;;;;;4956947;28;20204;-66
2023/08/26 05:17:23;;;;;;;5.45;4.10;;;;;;;;;;4956956;28;20669;-66
2023/08/26 05:19:50;;;;;;;4.63;4.22;;;;;;;;;;4956782;28;20626;-66
2023/08/26 05:22:16;;;;;;;5.60;4.80;;;;;;;;;;4956368;28;20222;-66
2023/08/26 05:24:44;;;;;;;7.45;5.30;;;;;;;;;;4956875;28;20695;-66
2023/08/26 05:27:10;;;;;;;7.32;4.90;;;;;;;;;;4956468;28;20215;-66
2023/08/26 05:29:36;;;;;;;9.82;4.55;;;;;;;;;;4956807;28;20200;-66
2023/08/26 05:32:02;;;;;;;7.68;4.95;;;;;;;;;;4956127;28;20221;-66
2023/08/26 05:34:29;;;;;;;10.32;5.13;;;;;;;;;;4956636;28;20224;-66
2023/08/26 05:36:55;;;;;;;6.35;5.00;;;;;;;;;;4956325;28;20583;-66
2023/08/26 05:39:21;;;;;;;5.25;4.55;;;;;;;;;;4956497;28;20279;-66
2023/08/26 05:41:49;;;;;;;6.38;5.05;;;;;;;;;;4956190;28;20239;-66
2023/08/26 05:44:15;;;;;;;7.18;4.78;;;;;;;;;;4956353;28;20208;-66
2023/08/26 05:46:41;;;;;;;5.63;4.47;;;;;;;;;;4956485;28;20200;-66
2023/08/26 05:49:07;;;;;;;5.95;4.43;;;;;;;;;;4956105;28;20208;-66
2023/08/26 05:51:34;;;;;;;5.18;4.72;;;;;;;;;;4955844;28;20723;-66
2023/08/26 05:54:00;;;;;;;4.97;4.47;;;;;;;;;;4956486;28;20613;-66
2023/08/26 05:56:26;;;;;;;7.38;4.88;;;;;;;;;;4956357;28;20211;-66
2023/08/26 05:58:54;;;;;;;4.30;3.90;;;;;;;;;;4956325;28;20205;-66
2023/08/26 06:01:20;;;;;;;4.45;4.20;;;;;;;;;;4947924;28;20719;-66
2023/08/26 06:03:46;;;;;;;6.20;3.97;;;;;;;;;;4955904;28;20715;-66
2023/08/26 06:06:13;;;;;;;8.45;4.50;;;;;;;;;;4954522;28;20668;-66
2023/08/26 06:08:39;;;;;;;6.20;4.72;;;;;;;;;;4955782;28;20735;-66
2023/08/26 06:11:05;;;;;;;7.03;4.57;;;;;;;;;;4955498;28;20631;-66
2023/08/26 06:13:31;;;;;;;4.80;4.32;;;;;;;;;;4956231;28;20207;-66
2023/08/26 06:15:59;;;;;;;4.70;4.35;;;;;;;;;;4955619;28;20211;-66
2023/08/26 06:18:26;;;;;;;4.63;4.20;;;;;;;;;;4956193;28;20204;-66
2023/08/26 06:20:52;;;;;;;7.28;4.28;;;;;;;;;;4955475;28;20232;-66
2023/08/26 06:23:19;;;;;;;4.53;4.13;;;;;;;;;;4955514;28;20287;-66
2023/08/26 06:25:50;;;;;;;4.20;3.85;;;;;;;;;;4955880;28;20208;-66
2023/08/26 06:28:17;;;;;;;4.47;3.90;;;;;;;;;;4955570;28;20223;-66
2023/08/26 06:30:43;;;;;;;4.78;4.38;;;;;;;;;;4955747;28;20203;-66
2023/08/26 06:33:10;;;;;;;6.75;4.47;;;;;;;;;;4956830;28;20211;-66
2023/08/26 06:35:37;;;;;;;4.55;4.15;;;;;;;;;;4958672;28;20291;-66
2023/08/26 06:38:03;;;;;;;7.88;4.50;;;;;;;;;;4955663;28;20623;-66
2023/08/26 06:40:31;;;;;;;7.25;4.60;;;;;;;;;;4955191;28;20295;-66
2023/08/26 06:42:57;;;;;;;5.38;4.43;;;;;;;;;;4955065;28;20581;-66
2023/08/26 06:45:23;;;;;;;10.50;4.43;;;;;;;;;;4955413;28;20211;-66
2023/08/26 06:47:49;;;;;;;7.80;4.07;;;;;;;;;;4955202;28;20204;-66
2023/08/26 06:50:17;;;;;;;6.97;4.28;;;;;;;;;;4955158;28;20216;-66
2023/08/26 06:52:43;;;;;;;6.40;4.60;;;;;;;;;;4955037;28;20596;-66
2023/08/26 06:55:10;;;;;;;6.28;4.47;;;;;;;;;;4955081;28;20208;-66
2023/08/26 06:57:36;;;;;;;5.20;4.70;;;;;;;;;;4955165;28;20196;-66
2023/08/26 07:00:03;;;;;;;6.20;5.10;;;;;;;;;;4954870;28;20204;-66
2023/08/26 07:02:30;;;;;;;6.13;4.57;;;;;;;;;;4954555;28;20215;-66
2023/08/26 07:04:56;;;;;;;6.05;4.65;;;;;;;;;;4954861;28;20696;-66
2023/08/26 07:07:23;;;;;;;6.75;4.63;;;;;;;;;;4947276;29;20223;-66
2023/08/26 07:09:50;;;;;;;6.53;4.50;;;;;;;;;;4955087;28;20196;-66
2023/08/26 07:12:16;;;;;;;6.50;4.70;;;;;;;;;;4954448;28;20223;-66
2023/08/26 07:14:42;;;;;;;7.38;4.10;;;;;;;;;;4954922;28;20204;-66
2023/08/26 07:17:08;;;;;;;13.70;4.57;;;;;;;;;;4954830;28;20212;-66
2023/08/26 07:19:35;;;;;;;10.18;4.38;;;;;;;;;;4954293;28;20583;-66
2023/08/26 07:22:01;;;;;;;11.23;4.35;;;;;;;;;;4954203;28;20658;-66
2023/08/26 07:24:29;;;;;;;8.48;4.80;;;;;;;;;;4954529;28;20212;-66
2023/08/26 07:26:55;;;;;;;6.10;3.83;;;;;;;;;;4954643;28;20291;-66
2023/08/26 07:29:21;;;;;;;7.90;3.83;;;;;;;;;;4954344;28;20665;-66
2023/08/26 07:31:48;;;;;;;7.85;4.32;;;;;;;;;;4954040;28;20727;-66
2023/08/26 07:34:14;;;;;;;5.72;4.15;;;;;;;;;;4954266;28;20294;-66
2023/08/26 07:36:40;;;;;;;6.78;4.30;;;;;;;;;;4954623;28;20204;-66
2023/08/26 07:39:06;;;;;;;6.00;4.22;;;;;;;;;;4954354;28;20232;-66
2023/08/26 07:41:35;;;;;;;11.35;4.80;;;;;;;;;;4953920;28;20231;-66
2023/08/26 07:44:03;;;;;;;6.78;5.05;;;;;;;;;;4954111;28;20595;-66
2023/08/26 07:46:29;;;;;;;9.57;4.60;;;;;;;;;;4954082;28;20207;-66
2023/08/26 07:48:56;;;;;;;6.43;4.50;;;;;;;;;;4954431;28;20220;-66
2023/08/26 07:51:22;;;;;;;8.40;4.78;;;;;;;;;;4954110;28;20235;-66
2023/08/26 07:53:48;;;;;;;8.40;3.75;;;;;;;;;;4954221;28;20200;-66
2023/08/26 07:56:15;;;;;;;7.13;4.30;;;;;;;;;;4954303;28;20215;-66
2023/08/26 07:58:42;;;;;;;6.97;4.57;;;;;;;;;;4953957;28;20212;-66
2023/08/26 08:01:08;;;;;;;6.03;4.85;;;;;;;;;;4953393;28;20231;-66
2023/08/26 08:03:35;;;;;;;8.18;4.43;;;;;;;;;;4953866;28;20668;-66
2023/08/26 08:06:01;;;;;;;7.32;4.35;;;;;;;;;;4953973;28;20582;-66
2023/08/26 08:08:27;;;;;;;6.50;4.78;;;;;;;;;;4953944;28;20204;-66
2023/08/26 08:10:53;;;;;;;6.63;4.85;;;;;;;;;;4953511;28;20228;-66
2023/08/26 08:13:20;;;;;;;8.18;4.40;;;;;;;;;;4953615;28;20215;-66
2023/08/26 08:15:47;;;;;;;5.95;3.95;;;;;;;;;;4953719;28;20200;-66
2023/08/26 08:18:14;;;;;;;8.73;3.63;;;;;;;;;;4953816;28;20208;-66
2023/08/26 08:20:40;;;;;;;3.65;3.22;;;;;;;;;;4953579;28;20203;-66
2023/08/26 08:23:06;;;;;;;5.70;3.35;;;;;;;;;;4953543;28;20224;-66
2023/08/26 08:25:32;;;;;;;3.92;3.63;;;;;;;;;;4953663;28;20620;-66
2023/08/26 08:28:01;;;;;;;5.10;3.58;;;;;;;;;;4953359;28;20231;-66
2023/08/26 08:30:28;;;;;;;7.00;4.28;;;;;;;;;;4952469;28;20200;-66
2023/08/26 08:32:55;;;;;;;8.52;3.85;;;;;;;;;;4953696;28;20207;-66
2023/08/26 08:35:22;;;;;;;4.30;3.88;;;;;;;;;;4953353;28;20218;-66
2023/08/26 08:37:48;;;;;;;4.10;3.50;;;;;;;;;;4953456;28;20204;-66
2023/08/26 08:40:14;;;;;;;3.65;3.35;;;;;;;;;;4953305;28;20672;-66
2023/08/26 08:42:41;;;;;;;8.48;4.10;;;;;;;;;;4952866;28;20224;-66
2023/08/26 08:45:08;;;;;;;4.70;3.78;;;;;;;;;;4953211;28;20204;-66
2023/08/26 08:47:34;;;;;;;6.75;3.70;;;;;;;;;;4953691;28;20259;-66
2023/08/26 08:50:02;;;;;;;4.13;3.67;;;;;;;;;;4953767;28;20283;-66
2023/08/26 08:52:29;;;;;;;6.88;4.40;;;;;;;;;;4952857;28;20723;-66
2023/08/26 08:54:55;;;;;;;6.25;3.88;;;;;;;;;;4953389;28;20208;-66
2023/08/26 08:57:24;;;;;;;7.65;4.05;;;;;;;;;;4953024;28;20208;-66
2023/08/26 08:59:51;;;;;;;4.13;3.63;;;;;;;;;;4953150;29;20700;-66
2023/08/26 09:02:17;;;;;;;4.80;3.70;;;;;;;;;;4952913;28;20250;-66
2023/08/26 09:04:44;;;;;;;3.58;3.22;;;;;;;;;;4953270;28;20208;-66
2023/08/26 09:07:12;;;;;;;4.90;4.05;;;;;;;;;;4953089;28;20216;-66
2023/08/26 09:09:39;;;;;;;5.90;3.60;;;;;;;;;;4953182;28;20204;-66
2023/08/26 09:12:05;;;;;;;7.32;3.70;;;;;;;;;;4953131;28;20224;-66
2023/08/26 09:14:32;;;;;;;5.68;3.50;;;;;;;;;;4952902;28;20196;-66
2023/08/26 09:17:00;;;;;;;6.50;3.85;;;;;;;;;;4952976;28;20669;-66
2023/08/26 09:19:26;;;;;;;5.95;3.70;;;;;;;;;;4952951;28;20587;-66
2023/08/26 09:21:53;;;;;;;6.55;3.60;;;;;;;;;;4952823;28;20623;-66
2023/08/26 09:24:21;;;;;;;7.57;3.58;;;;;;;;;;4952968;28;20204;-66
2023/08/26 09:26:58;;;;;;;8.27;3.70;;;;;;;;;;4952955;28;20200;-66
2023/08/26 09:29:25;;;;;;;5.38;3.30;;;;;;;;;;4952818;28;20584;-66
2023/08/26 09:31:52;;;;;;;6.00;3.45;;;;;;;;;;4952741;28;20220;-66
2023/08/26 09:34:23;;;;;;;7.38;3.60;;;;;;;;;;4952912;28;20263;-66
2023/08/26 09:36:49;;;;;;;4.15;3.75;;;;;;;;;;4953074;28;20204;-66
2023/08/26 09:39:16;;;;;;;6.72;3.97;;;;;;;;;;4952813;28;20208;-66
2023/08/26 09:41:44;;;;;;;9.80;3.60;;;;;;;;;;4955813;28;20232;-66
2023/08/26 09:44:10;;;;;;;9.60;3.95;;;;;;;;;;4956200;28;20215;-66
2023/08/26 09:46:37;;;;;;;6.72;3.83;;;;;;;;;;4956512;28;20212;-66
2023/08/26 09:49:04;;;;;;;11.55;3.70;;;;;;;;;;4956853;28;20263;-66
2023/08/26 09:51:31;;;;;;;11.95;3.30;;;;;;;;;;4955781;28;20278;-66
2023/08/26 09:53:57;;;;;;;7.20;3.65;;;;;;;;;;4956519;28;20208;-66
2023/08/26 09:56:24;;;;;;;5.72;3.30;;;;;;;;;;4956037;28;20204;-66
2023/08/26 09:58:52;;;;;;;5.50;3.60;;;;;;;;;;4956201;28;20291;-66
2023/08/26 10:01:19;;;;;;;5.25;3.45;;;;;;;;;;4955710;28;20232;-66
2023/08/26 10:03:47;;;;;;;4.70;3.55;;;;;;;;;;4955863;28;20692;-66
2023/08/26 10:06:14;;;;;;;5.60;3.40;;;;;;;;;;4956004;28;20208;-66
2023/08/26 10:08:42;;;;;;;7.57;3.30;;;;;;;;;;4956117;28;20214;-66
2023/08/26 10:11:11;;;;;;;9.30;3.65;;;;;;;;;;4955898;28;20228;-66
2023/08/26 10:13:39;;;;;;;6.50;3.65;;;;;;;;;;4955830;28;20196;-66
2023/08/26 10:16:09;;;;;;;6.88;3.92;;;;;;;;;;4955922;28;20212;-66
2023/08/26 10:18:36;;;;;;;4.93;3.70;;;;;;;;;;4955624;28;20200;-66
2023/08/26 10:21:03;;;;;;;11.18;4.28;;;;;;;;;;4955278;28;20235;-66
2023/08/26 10:23:30;;;;;;;4.38;3.85;;;;;;;;;;4955778;28;20228;-66
2023/08/26 10:25:57;;;;;;;4.82;3.35;;;;;;;;;;4955760;28;20212;-66
2023/08/26 10:28:23;;;;;;;6.88;3.83;;;;;;;;;;4955458;28;20215;-66
2023/08/26 10:30:50;;;;;;;7.45;3.40;;;;;;;;;;4955230;28;20216;-66
2023/08/26 10:33:18;;;;;;;5.93;3.53;;;;;;;;;;4955552;28;20255;-66
2023/08/26 10:35:57;;;;;;;6.43;3.55;;;;;;;;;;4956525;28;20204;-66
2023/08/26 10:38:22;;;;;;;5.55;3.33;;;;;;;;;;4957230;28;20211;-66
2023/08/26 10:40:48;;;;;;;4.28;3.85;;;;;;;;;;4957772;28;20216;-66
2023/08/26 10:43:15;;;;;;;4.22;3.58;;;;;;;;;;4956504;28;20723;-66
2023/08/26 10:45:44;;;;;;;8.35;3.33;;;;;;;;;;4939532;29;20204;-66
2023/08/26 10:48:11;;;;;;;4.13;3.35;;;;;;;;;;4955487;28;20208;-66
2023/08/26 10:50:38;;;;;;;4.18;3.10;;;;;;;;;;4955022;28;20212;-66
2023/08/26 10:53:13;;;;;;;5.53;3.83;;;;;;;;;;4954351;28;20702;-66
2023/08/26 10:55:39;;;;;;;8.68;3.70;;;;;;;;;;4955191;28;20206;-66
2023/08/26 10:58:10;;;;;;;7.03;3.60;;;;;;;;;;4955182;28;20207;-66
2023/08/26 11:00:36;;;;;;;8.10;3.47;;;;;;;;;;4954541;28;20234;-66
2023/08/26 11:03:03;;;;;;;8.18;3.80;;;;;;;;;;4955144;28;20235;-66
2023/08/26 11:05:30;;;;;;;8.23;3.90;;;;;;;;;;4955276;28;20227;-66
2023/08/26 11:07:57;;;;;;;4.88;3.80;;;;;;;;;;4955006;28;20204;-66
2023/08/26 11:10:27;;;;;;;4.60;2.78;;;;;;;;;;4954769;28;20215;-66
2023/08/26 11:12:53;;;;;;;5.68;3.78;;;;;;;;;;4954634;28;20544;-66
2023/08/26 11:15:19;;;;;;;6.07;3.40;;;;;;;;;;4955000;28;20208;-66
2023/08/26 11:17:46;;;;;;;5.40;3.40;;;;;;;;;;4954700;28;20550;-66
2023/08/26 11:20:12;;;;;;;8.20;3.67;;;;;;;;;;4954788;28;20208;-66
2023/08/26 11:22:39;;;;;;;7.53;4.15;;;;;;;;;;4954089;28;20688;-66
2023/08/26 11:25:07;;;;;;;6.07;3.90;;;;;;;;;;4954609;28;20232;-66
2023/08/26 11:27:33;;;;;;;5.22;3.90;;;;;;;;;;4954282;28;20204;-66
2023/08/26 11:29:59;;;;;;;5.97;3.60;;;;;;;;;;4954738;28;20217;-66
2023/08/26 11:32:29;;;;;;;11.40;4.00;;;;;;;;;;4954248;28;20220;-66
2023/08/26 11:34:55;;;;;;;7.18;3.70;;;;;;;;;;4954455;28;20211;-66
2023/08/26 11:37:22;;;;;;;8.15;4.43;;;;;;;;;;4954484;28;20215;-66
2023/08/26 11:39:48;;;;;;;8.20;3.28;;;;;;;;;;4955009;28;20199;-66
2023/08/26 11:42:16;;;;;;;3.83;3.50;;;;;;;;;;4954161;28;20224;-66
2023/08/26 11:44:44;;;;;;;5.53;3.90;;;;;;;;;;4954565;28;20665;-66
2023/08/26 11:47:13;;;;;;;6.70;3.97;;;;;;;;;;4954615;28;20208;-66
2023/08/26 11:49:39;;;;;;;10.45;4.30;;;;;;;;;;4954418;28;20215;-66
2023/08/26 11:52:06;;;;;;;8.02;4.22;;;;;;;;;;4954026;28;20227;-66
2023/08/26 11:54:32;;;;;;;8.40;3.58;;;;;;;;;;4954135;28;20215;-66
2023/08/26 11:56:59;;;;;;;8.98;3.83;;;;;;;;;;4954338;28;20208;-66
2023/08/26 11:59:37;;;;;;;12.15;4.28;;;;;;;;;;4954283;28;20211;-66
2023/08/26 12:02:14;;;;;;;5.50;4.00;;;;;;;;;;4953723;28;20707;-66
2023/08/26 12:04:40;;;;;;;9.20;3.88;;;;;;;;;;4954170;28;20207;-66
2023/08/26 12:07:08;;;;;;;8.13;4.38;;;;;;;;;;4953982;28;20211;-66
2023/08/26 12:09:35;;;;;;;5.47;3.80;;;;;;;;;;4954319;28;20213;-66
2023/08/26 12:12:03;;;;;;;7.80;3.83;;;;;;;;;;4953839;28;20314;-66
2023/08/26 12:14:32;;;;;;;7.05;3.55;;;;;;;;;;4953987;28;20212;-66
2023/08/26 12:17:02;;;;;;;5.03;4.13;;;;;;;;;;4954067;28;20254;-66
2023/08/26 12:19:30;;;;;;;7.00;4.07;;;;;;;;;;4953814;28;20204;-66
2023/08/26 12:21:58;;;;;;;8.15;4.20;;;;;;;;;;4953577;28;20259;-66
2023/08/26 12:24:24;;;;;;;7.10;4.05;;;;;;;;;;4953773;28;20219;-66
2023/08/26 12:26:51;;;;;;;6.05;4.15;;;;;;;;;;4938146;29;20204;-66
2023/08/26 12:29:17;;;;;;;5.82;3.60;;;;;;;;;;4953820;28;20204;-66
2023/08/26 12:31:47;;;;;;;10.38;4.18;;;;;;;;;;4955464;28;20239;-66
2023/08/26 12:34:13;;;;;;;6.68;4.50;;;;;;;;;;4954174;28;20208;-66
2023/08/26 12:36:40;;;;;;;12.10;3.90;;;;;;;;;;4953784;28;20204;-66
2023/08/26 12:39:06;;;;;;;4.63;4.15;;;;;;;;;;4953720;28;20201;-66
2023/08/26 12:41:32;;;;;;;9.93;4.28;;;;;;;;;;4953165;28;20235;-66
2023/08/26 12:43:59;;;;;;;11.75;4.32;;;;;;;;;;4953481;28;20220;-66
2023/08/26 12:46:25;;;;;;;8.52;3.83;;;;;;;;;;4953558;28;20208;-66
2023/08/26 12:48:53;;;;;;;4.32;3.90;;;;;;;;;;4953347;28;20888;-66
2023/08/26 12:51:19;;;;;;;4.53;4.10;;;;;;;;;;4953232;28;20232;-66
2023/08/26 12:53:45;;;;;;;4.75;4.15;;;;;;;;;;4953609;28;20204;-66
2023/08/26 12:56:12;;;;;;;4.93;4.45;;;;;;;;;;4953570;28;20212;-66
2023/08/26 12:58:38;;;;;;;5.40;4.22;;;;;;;;;;4953452;28;20208;-66
2023/08/26 13:01:04;;;;;;;8.43;4.72;;;;;;;;;;4953090;28;20603;-66
2023/08/26 13:03:30;;;;;;;5.45;4.25;;;;;;;;;;4953535;28;20227;-66
2023/08/26 13:05:58;;;;;;;7.05;4.55;;;;;;;;;;4953597;28;20225;-66
2023/08/26 13:08:24;;;;;;;7.53;4.50;;;;;;;;;;4953505;28;20208;-66
2023/08/26 13:10:51;;;;;;;9.70;4.70;;;;;;;;;;4952846;28;20227;-66
2023/08/26 13:13:17;;;;;;;7.72;4.55;;;;;;;;;;4953332;28;20200;-66
2023/08/26 13:15:44;;;;;;;7.22;5.25;;;;;;;;;;4955105;28;20208;-66
2023/08/26 13:18:10;;;;;;;5.38;4.68;;;;;;;;;;4965270;28;20208;-66
2023/08/26 13:20:38;;;;;;;6.90;4.75;;;;;;;;;;4958230;28;20208;-66
2023/08/26 13:23:06;;;;;;;7.10;4.93;;;;;;;;;;4957132;28;20227;-66
2023/08/26 13:25:32;;;;;;;5.00;4.35;;;;;;;;;;4957073;28;20341;-66
2023/08/26 13:27:59;;;;;;;6.60;4.38;;;;;;;;;;4956936;28;20211;-66
2023/08/26 13:30:25;;;;;;;9.98;3.90;;;;;;;;;;4956623;28;20212;-66
2023/08/26 13:32:51;;;;;;;5.20;3.65;;;;;;;;;;4956819;28;20208;-66
2023/08/26 13:35:18;;;;;;;5.35;3.88;;;;;;;;;;4956833;28;20661;-66
2023/08/26 13:37:44;;;;;;;6.22;3.67;;;;;;;;;;4956696;28;20208;-66
2023/08/26 13:40:12;;;;;;;5.80;3.97;;;;;;;;;;4956837;28;20587;-66
2023/08/26 13:42:38;;;;;;;3.92;3.45;;;;;;;;;;4956168;28;20311;-66
2023/08/26 13:45:05;;;;;;;5.25;3.50;;;;;;;;;;4956678;28;20205;-66
2023/08/26 13:47:32;;;;;;;3.95;3.22;;;;;;;;;;4956639;28;20201;-66
2023/08/26 13:49:58;;;;;;;5.97;3.70;;;;;;;;;;4956464;28;20669;-66
2023/08/26 13:52:24;;;;;;;5.55;3.42;;;;;;;;;;4956310;28;20224;-66
2023/08/26 13:54:50;;;;;;;5.15;3.35;;;;;;;;;;4956445;28;20196;-66
2023/08/26 13:57:18;;;;;;;4.15;3.42;;;;;;;;;;4956469;28;20205;-66
2023/08/26 13:59:44;;;;;;;4.53;3.25;;;;;;;;;;4956596;28;20252;-66
2023/08/26 14:02:10;;;;;;;5.90;3.38;;;;;;;;;;4956283;28;20216;-65
2023/08/26 14:04:37;;;;;;;5.22;3.70;;;;;;;;;;4956190;28;20213;-65
2023/08/26 14:07:03;;;;;;;8.02;3.78;;;;;;;;;;4956111;28;20248;-65
2023/08/26 14:09:29;;;;;;;4.28;3.13;;;;;;;;;;4956233;28;20196;-65
2023/08/26 14:11:58;;;;;;;3.88;3.45;;;;;;;;;;4955576;28;20324;-65
2023/08/26 14:14:26;;;;;;;6.88;3.08;;;;;;;;;;4956352;28;20279;-65
2023/08/26 14:16:53;;;;;;;4.45;3.28;;;;;;;;;;4955986;28;20210;-65
2023/08/26 14:19:19;;;;;;;7.20;3.75;;;;;;;;;;4956150;28;20208;-66
2023/08/26 14:21:45;;;;;;;4.50;3.20;;;;;;;;;;4955864;28;20220;-66
2023/08/26 14:24:12;;;;;;;6.15;3.72;;;;;;;;;;4956121;28;20223;-66
2023/08/26 14:26:38;;;;;;;5.97;4.05;;;;;;;;;;4954648;28;20692;-65
2023/08/26 14:29:04;;;;;;;5.90;3.72;;;;;;;;;;4956038;28;20200;-65
2023/08/26 14:31:32;;;;;;;8.43;3.50;;;;;;;;;;4955627;28;20220;-65
2023/08/26 14:33:58;;;;;;;6.03;3.55;;;;;;;;;;4955850;28;20224;-65
2023/08/26 14:36:25;;;;;;;3.63;3.30;;;;;;;;;;4955728;28;20200;-65
2023/08/26 14:38:51;;;;;;;7.07;3.60;;;;;;;;;;4955613;28;20212;-65